Daio — JG5587 — position and weather

sailwx.info

Track history (hours):
 
Tides and Currents Weather Stations Pressure Air Temp Water Temp Dewpoint Dewpoint Depression Visibility Wind Speed Wind Dir Waves Ship Positions

Daio

Last reported at 2014-Sep-01 10:33 UTC. Time now 2014-Sep-01 11:24 UTC.
Position N 35°36' E 140°07'.

Length 36 m; draft 3.4 m.

Type: Tug. MMSI: 431003092.

Date/timePositionNaut miles runAvg speedWind from/ knotsBaromVisibWave heightAir tempDewpointWater temp
2014-Sep-01 10:33N 35°36' E 140°07'0 0.0
2014-Sep-01 09:33N 35°36' E 140°07'0 0.0
2014-Sep-01 08:33N 35°36' E 140°07'0 0.0
2014-Sep-01 07:33N 35°36' E 140°07'0 0.0
2014-Sep-01 06:33N 35°36' E 140°07'0 0.0
2014-Sep-01 05:33N 35°36' E 140°07'0 0.0
2014-Sep-01 04:33N 35°36' E 140°07'0 0.0
2014-Sep-01 03:33N 35°36' E 140°07'0 0.0
2014-Sep-01 02:33N 35°36' E 140°07'0 0.0
2014-Sep-01 01:33N 35°36' E 140°07'5 4.5
2014-Sep-01 00:33N 35°33' E 140°02'6 5.7
2014-Aug-31 23:33N 35°29' E 139°58'2 2.4
2014-Aug-31 22:33N 35°30' E 140°00'3 3.0
2014-Aug-31 21:33N 35°32' E 140°03'5 4.7
2014-Aug-31 20:33N 35°36' E 140°07'0 0.0
2014-Aug-31 19:33N 35°36' E 140°07'0 0.0
2014-Aug-31 18:33N 35°36' E 140°07'0 0.0
2014-Aug-31 17:33N 35°36' E 140°07'0 0.0
2014-Aug-31 16:33N 35°36' E 140°07'0 0.0
2014-Aug-31 15:34N 35°36' E 140°07'0 0.0
2014-Aug-31 14:33N 35°36' E 140°07'0 0.0
2014-Aug-31 13:34N 35°36' E 140°07'0 0.0
2014-Aug-31 12:34N 35°36' E 140°07'0 0.0
2014-Aug-31 11:33N 35°36' E 140°07'0 0.0
2014-Aug-31 10:33N 35°36' E 140°07'0 0.0
2014-Aug-31 09:34N 35°36' E 140°07'0 0.0
2014-Aug-31 08:33N 35°36' E 140°07'0 0.0
2014-Aug-31 07:33N 35°36' E 140°07'5 4.5
2014-Aug-31 06:33N 35°33' E 140°02'5 4.6
2014-Aug-31 05:34N 35°29' E 140°00'0 0.4
2014-Aug-31 04:33N 35°29' E 140°00'1 1.1
2014-Aug-31 03:33N 35°30' E 139°59'2 1.7
2014-Aug-31 02:33N 35°28' E 139°58'1 0.6
2014-Aug-31 01:33N 35°29' E 139°58'1 1.0
2014-Aug-31 00:34N 35°29' E 139°57'3 3.4
2014-Aug-30 23:33N 35°30' E 140°01'8 7.7
2014-Aug-30 22:33N 35°36' E 140°06'0 0.0
2014-Aug-30 07:24N 35°36' E 140°06'0 0.0
2014-Aug-30 06:33N 35°36' E 140°06'0 0.0
2014-Aug-30 05:34N 35°36' E 140°06'0 0.0
2014-Aug-30 04:34N 35°36' E 140°06'0 0.0
2014-Aug-30 03:34N 35°36' E 140°06'2 2.0
2014-Aug-30 02:33N 35°35' E 140°04'6 6.0
2014-Aug-30 01:34N 35°30' E 140°01'1 1.0
2014-Aug-30 00:33N 35°31' E 140°01'1 0.7
2014-Aug-29 23:33N 35°31' E 139°60'0 0.0
2014-Aug-29 22:33N 35°31' E 139°60'1 1.5
2014-Aug-29 21:33N 35°30' E 140°01'8 7.7
2014-Aug-29 20:34N 35°36' E 140°06'0 0.0
2014-Aug-29 07:28N 35°36' E 140°06'0 0.0
2014-Aug-29 06:34N 35°36' E 140°06'0 0.1
2014-Aug-29 05:34N 35°36' E 140°06'1 1.2
2014-Aug-29 04:34N 35°36' E 140°05'3 2.6
2014-Aug-29 03:33N 35°34' E 140°02'3 2.7
2014-Aug-29 02:34N 35°36' E 140°05'1 1.4
2014-Aug-29 01:34N 35°36' E 140°07'0 0.0
2014-Aug-29 00:33N 35°36' E 140°07'0 0.5
2014-Aug-28 23:34N 35°36' E 140°06'0 0.0
2014-Aug-28 22:34N 35°36' E 140°06'0 0.0
2014-Aug-28 08:08N 35°36' E 140°06'0 0.0
2014-Aug-28 07:33N 35°36' E 140°06'7 6.8
2014-Aug-28 06:33N 35°31' E 140°00'3 3.5
2014-Aug-28 05:33N 35°28' E 139°58'1 1.3
2014-Aug-28 04:33N 35°28' E 139°60'1 0.8
2014-Aug-28 03:33N 35°29' E 139°59'1 0.6
2014-Aug-28 02:33N 35°29' E 139°59'0 0.0
2014-Aug-28 01:33N 35°29' E 139°59'0 0.0
2014-Aug-28 00:33N 35°29' E 139°59'0 0.4
2014-Aug-27 23:33N 35°29' E 139°58'0 0.0
2014-Aug-27 22:33N 35°29' E 139°58'9 9.2
2014-Aug-27 21:34N 35°35' E 140°06'1 0.6
2014-Aug-27 20:34N 35°35' E 140°06'1 1.2
2014-Aug-27 19:33N 35°36' E 140°06'0 0.0
2014-Aug-27 18:33N 35°36' E 140°06'0 0.0
2014-Aug-27 17:33N 35°36' E 140°06'0 0.0
2014-Aug-27 16:33N 35°36' E 140°06'0 0.0
2014-Aug-27 15:33N 35°36' E 140°06'0 0.0
2014-Aug-27 14:33N 35°36' E 140°06'0 0.0
2014-Aug-27 08:23N 35°36' E 140°06'1 1.0
2014-Aug-27 07:33N 35°35' E 140°06'9 9.1
2014-Aug-27 06:33N 35°31' E 139°56'0 0.1
2014-Aug-27 05:34N 35°31' E 139°56'2 2.3
2014-Aug-27 04:34N 35°30' E 139°54'1 1.2
2014-Aug-27 03:34N 35°28' E 139°54'0 0.0
2014-Aug-27 02:34N 35°28' E 139°54'1 1.0
2014-Aug-27 01:33N 35°29' E 139°55'2 1.8
2014-Aug-27 00:33N 35°31' E 139°56'9 9.4
2014-Aug-26 23:33N 35°36' E 140°06'1 1.4
2014-Aug-26 22:34N 35°35' E 140°04'0 0.5
2014-Aug-26 21:33N 35°35' E 140°04'0 0.0
2014-Aug-26 20:33N 35°35' E 140°04'2 2.3
2014-Aug-26 19:33N 35°36' E 140°06'0 0.0
2014-Aug-26 18:33N 35°36' E 140°06'0 0.0
2014-Aug-26 17:34N 35°36' E 140°06'0 0.0
2014-Aug-26 16:33N 35°36' E 140°06'0 0.0
2014-Aug-26 15:33N 35°36' E 140°06'0 0.0
2014-Aug-26 14:34N 35°36' E 140°06'0 0.0
2014-Aug-26 13:34N 35°36' E 140°06'0 0.0
2014-Aug-26 08:14N 35°36' E 140°06'2 2.4
2014-Aug-26 07:33N 35°35' E 140°05'5 4.6
2014-Aug-26 06:33N 35°31' E 140°02'0 0.3
2014-Aug-26 05:33N 35°31' E 140°02'0 0.0
2014-Aug-26 04:33N 35°31' E 140°02'0 0.0
2014-Aug-26 03:33N 35°31' E 140°02'3 2.6
2014-Aug-26 02:33N 35°30' E 139°60'2 2.0
2014-Aug-26 01:34N 35°28' E 139°58'0 0.4
2014-Aug-26 00:33N 35°28' E 139°58'9 8.5
2014-Aug-25 23:33N 35°35' E 140°05'2 1.7
2014-Aug-25 22:33N 35°36' E 140°06'0 0.0
2014-Aug-25 09:33N 35°36' E 140°06'1 1.2
2014-Aug-25 08:33N 35°35' E 140°06'3 3.1
2014-Aug-25 07:33N 35°35' E 140°03'0 0.5
2014-Aug-25 06:33N 35°34' E 140°02'0 0.0
2014-Aug-25 05:33N 35°34' E 140°02'1 1.5
2014-Aug-25 04:33N 35°33' E 140°01'5 5.5
2014-Aug-25 03:33N 35°28' E 139°58'1 0.6
2014-Aug-25 02:33N 35°29' E 139°58'1 0.7
2014-Aug-25 01:33N 35°29' E 139°57'0 0.0
2014-Aug-25 00:33N 35°29' E 139°57'5 5.1
2014-Aug-24 23:33N 35°31' E 140°02'0 0.2
2014-Aug-24 22:33N 35°31' E 140°02'1 1.0
2014-Aug-24 21:33N 35°31' E 140°01'7 6.9
2014-Aug-24 20:33N 35°36' E 140°06'0 0.0
2014-Aug-24 07:33N 35°36' E 140°06'0 0.0
2014-Aug-24 06:33N 35°36' E 140°06'2 2.5
2014-Aug-24 05:33N 35°34' E 140°04'5 5.0
2014-Aug-24 04:33N 35°30' E 140°01'1 0.6
2014-Aug-24 03:33N 35°30' E 140°00'0 0.0
2014-Aug-24 02:33N 35°30' E 140°00'0 0.0
2014-Aug-24 01:33N 35°30' E 140°00'0 0.1
2014-Aug-24 00:33N 35°30' E 140°00'2 2.2
2014-Aug-23 23:33N 35°28' E 139°58'10 9.7
2014-Aug-23 22:33N 35°36' E 140°06'0 0.5
2014-Aug-23 21:33N 35°36' E 140°06'6 0.4
2014-Aug-23 03:33N 35°32' E 140°00'5 4.9
2014-Aug-23 02:33N 35°28' E 139°58'1 0.9
2014-Aug-23 01:33N 35°29' E 139°59'0 0.0
2014-Aug-23 00:33N 35°29' E 139°59'5 4.8
2014-Aug-22 23:33N 35°33' E 140°02'5 4.7
2014-Aug-22 22:33N 35°36' E 140°05'3 2.6
2014-Aug-22 21:33N 35°35' E 140°03'0 0.0
2014-Aug-22 20:33N 35°35' E 140°03'3 3.2
2014-Aug-22 19:33N 35°36' E 140°06'0 0.0
2014-Aug-22 18:33N 35°36' E 140°06'  
Track history (hours):
 
Tides and Currents Weather Stations Pressure Air Temp Water Temp Dewpoint Dewpoint Depression Visibility Wind Speed Wind Dir Waves Ship Positions

Daio

Last reported at 2014-Sep-01 10:33 UTC. Time now 2014-Sep-01 11:24 UTC.
Position N 35°36' E 140°07'.

Length 36 m; draft 3.4 m.

Type: Tug. MMSI: 431003092.

Date/timePositionNaut miles runAvg speedWind from/ knotsBaromVisibWave heightAir tempDewpointWater temp
2014-Sep-01 10:33N 35°36' E 140°07'0 0.0
2014-Sep-01 09:33N 35°36' E 140°07'0 0.0
2014-Sep-01 08:33N 35°36' E 140°07'0 0.0
2014-Sep-01 07:33N 35°36' E 140°07'0 0.0
2014-Sep-01 06:33N 35°36' E 140°07'0 0.0
2014-Sep-01 05:33N 35°36' E 140°07'0 0.0
2014-Sep-01 04:33N 35°36' E 140°07'0 0.0
2014-Sep-01 03:33N 35°36' E 140°07'0 0.0
2014-Sep-01 02:33N 35°36' E 140°07'0 0.0
2014-Sep-01 01:33N 35°36' E 140°07'5 4.5
2014-Sep-01 00:33N 35°33' E 140°02'6 5.7
2014-Aug-31 23:33N 35°29' E 139°58'2 2.4
2014-Aug-31 22:33N 35°30' E 140°00'3 3.0
2014-Aug-31 21:33N 35°32' E 140°03'5 4.7
2014-Aug-31 20:33N 35°36' E 140°07'0 0.0
2014-Aug-31 19:33N 35°36' E 140°07'0 0.0
2014-Aug-31 18:33N 35°36' E 140°07'0 0.0
2014-Aug-31 17:33N 35°36' E 140°07'0 0.0
2014-Aug-31 16:33N 35°36' E 140°07'0 0.0
2014-Aug-31 15:34N 35°36' E 140°07'0 0.0
2014-Aug-31 14:33N 35°36' E 140°07'0 0.0
2014-Aug-31 13:34N 35°36' E 140°07'0 0.0
2014-Aug-31 12:34N 35°36' E 140°07'0 0.0
2014-Aug-31 11:33N 35°36' E 140°07'0 0.0
2014-Aug-31 10:33N 35°36' E 140°07'0 0.0
2014-Aug-31 09:34N 35°36' E 140°07'0 0.0
2014-Aug-31 08:33N 35°36' E 140°07'0 0.0
2014-Aug-31 07:33N 35°36' E 140°07'5 4.5
2014-Aug-31 06:33N 35°33' E 140°02'5 4.6
2014-Aug-31 05:34N 35°29' E 140°00'0 0.4
2014-Aug-31 04:33N 35°29' E 140°00'1 1.1
2014-Aug-31 03:33N 35°30' E 139°59'2 1.7
2014-Aug-31 02:33N 35°28' E 139°58'1 0.6
2014-Aug-31 01:33N 35°29' E 139°58'1 1.0
2014-Aug-31 00:34N 35°29' E 139°57'3 3.4
2014-Aug-30 23:33N 35°30' E 140°01'8 7.7
2014-Aug-30 22:33N 35°36' E 140°06'0 0.0
2014-Aug-30 07:24N 35°36' E 140°06'0 0.0
2014-Aug-30 06:33N 35°36' E 140°06'0 0.0
2014-Aug-30 05:34N 35°36' E 140°06'0 0.0
2014-Aug-30 04:34N 35°36' E 140°06'0 0.0
2014-Aug-30 03:34N 35°36' E 140°06'2 2.0
2014-Aug-30 02:33N 35°35' E 140°04'6 6.0
2014-Aug-30 01:34N 35°30' E 140°01'1 1.0
2014-Aug-30 00:33N 35°31' E 140°01'1 0.7
2014-Aug-29 23:33N 35°31' E 139°60'0 0.0
2014-Aug-29 22:33N 35°31' E 139°60'1 1.5
2014-Aug-29 21:33N 35°30' E 140°01'8 7.7
2014-Aug-29 20:34N 35°36' E 140°06'0 0.0
2014-Aug-29 07:28N 35°36' E 140°06'0 0.0
2014-Aug-29 06:34N 35°36' E 140°06'0 0.1
2014-Aug-29 05:34N 35°36' E 140°06'1 1.2
2014-Aug-29 04:34N 35°36' E 140°05'3 2.6
2014-Aug-29 03:33N 35°34' E 140°02'3 2.7
2014-Aug-29 02:34N 35°36' E 140°05'1 1.4
2014-Aug-29 01:34N 35°36' E 140°07'0 0.0
2014-Aug-29 00:33N 35°36' E 140°07'0 0.5
2014-Aug-28 23:34N 35°36' E 140°06'0 0.0
2014-Aug-28 22:34N 35°36' E 140°06'0 0.0
2014-Aug-28 08:08N 35°36' E 140°06'0 0.0
2014-Aug-28 07:33N 35°36' E 140°06'7 6.8
2014-Aug-28 06:33N 35°31' E 140°00'3 3.5
2014-Aug-28 05:33N 35°28' E 139°58'1 1.3
2014-Aug-28 04:33N 35°28' E 139°60'1 0.8
2014-Aug-28 03:33N 35°29' E 139°59'1 0.6
2014-Aug-28 02:33N 35°29' E 139°59'0 0.0
2014-Aug-28 01:33N 35°29' E 139°59'0 0.0
2014-Aug-28 00:33N 35°29' E 139°59'0 0.4
2014-Aug-27 23:33N 35°29' E 139°58'0 0.0
2014-Aug-27 22:33N 35°29' E 139°58'9 9.2
2014-Aug-27 21:34N 35°35' E 140°06'1 0.6
2014-Aug-27 20:34N 35°35' E 140°06'1 1.2
2014-Aug-27 19:33N 35°36' E 140°06'0 0.0
2014-Aug-27 18:33N 35°36' E 140°06'0 0.0
2014-Aug-27 17:33N 35°36' E 140°06'0 0.0
2014-Aug-27 16:33N 35°36' E 140°06'0 0.0
2014-Aug-27 15:33N 35°36' E 140°06'0 0.0
2014-Aug-27 14:33N 35°36' E 140°06'0 0.0
2014-Aug-27 08:23N 35°36' E 140°06'1 1.0
2014-Aug-27 07:33N 35°35' E 140°06'9 9.1
2014-Aug-27 06:33N 35°31' E 139°56'0 0.1
2014-Aug-27 05:34N 35°31' E 139°56'2 2.3
2014-Aug-27 04:34N 35°30' E 139°54'1 1.2
2014-Aug-27 03:34N 35°28' E 139°54'0 0.0
2014-Aug-27 02:34N 35°28' E 139°54'1 1.0
2014-Aug-27 01:33N 35°29' E 139°55'2 1.8
2014-Aug-27 00:33N 35°31' E 139°56'9 9.4
2014-Aug-26 23:33N 35°36' E 140°06'1 1.4
2014-Aug-26 22:34N 35°35' E 140°04'0 0.5
2014-Aug-26 21:33N 35°35' E 140°04'0 0.0
2014-Aug-26 20:33N 35°35' E 140°04'2 2.3
2014-Aug-26 19:33N 35°36' E 140°06'0 0.0
2014-Aug-26 18:33N 35°36' E 140°06'0 0.0
2014-Aug-26 17:34N 35°36' E 140°06'0 0.0
2014-Aug-26 16:33N 35°36' E 140°06'0 0.0
2014-Aug-26 15:33N 35°36' E 140°06'0 0.0
2014-Aug-26 14:34N 35°36' E 140°06'0 0.0
2014-Aug-26 13:34N 35°36' E 140°06'0 0.0
2014-Aug-26 08:14N 35°36' E 140°06'2 2.4
2014-Aug-26 07:33N 35°35' E 140°05'5 4.6
2014-Aug-26 06:33N 35°31' E 140°02'0 0.3
2014-Aug-26 05:33N 35°31' E 140°02'0 0.0
2014-Aug-26 04:33N 35°31' E 140°02'0 0.0
2014-Aug-26 03:33N 35°31' E 140°02'3 2.6
2014-Aug-26 02:33N 35°30' E 139°60'2 2.0
2014-Aug-26 01:34N 35°28' E 139°58'0 0.4
2014-Aug-26 00:33N 35°28' E 139°58'9 8.5
2014-Aug-25 23:33N 35°35' E 140°05'2 1.7
2014-Aug-25 22:33N 35°36' E 140°06'0 0.0
2014-Aug-25 09:33N 35°36' E 140°06'1 1.2
2014-Aug-25 08:33N 35°35' E 140°06'3 3.1
2014-Aug-25 07:33N 35°35' E 140°03'0 0.5
2014-Aug-25 06:33N 35°34' E 140°02'0 0.0
2014-Aug-25 05:33N 35°34' E 140°02'1 1.5
2014-Aug-25 04:33N 35°33' E 140°01'5 5.5
2014-Aug-25 03:33N 35°28' E 139°58'1 0.6
2014-Aug-25 02:33N 35°29' E 139°58'1 0.7
2014-Aug-25 01:33N 35°29' E 139°57'0 0.0
2014-Aug-25 00:33N 35°29' E 139°57'5 5.1
2014-Aug-24 23:33N 35°31' E 140°02'0 0.2
2014-Aug-24 22:33N 35°31' E 140°02'1 1.0
2014-Aug-24 21:33N 35°31' E 140°01'7 6.9
2014-Aug-24 20:33N 35°36' E 140°06'0 0.0
2014-Aug-24 07:33N 35°36' E 140°06'0 0.0
2014-Aug-24 06:33N 35°36' E 140°06'2 2.5
2014-Aug-24 05:33N 35°34' E 140°04'5 5.0
2014-Aug-24 04:33N 35°30' E 140°01'1 0.6
2014-Aug-24 03:33N 35°30' E 140°00'0 0.0
2014-Aug-24 02:33N 35°30' E 140°00'0 0.0
2014-Aug-24 01:33N 35°30' E 140°00'0 0.1
2014-Aug-24 00:33N 35°30' E 140°00'2 2.2
2014-Aug-23 23:33N 35°28' E 139°58'10 9.7
2014-Aug-23 22:33N 35°36' E 140°06'0 0.5
2014-Aug-23 21:33N 35°36' E 140°06'6 0.4
2014-Aug-23 03:33N 35°32' E 140°00'5 4.9
2014-Aug-23 02:33N 35°28' E 139°58'1 0.9
2014-Aug-23 01:33N 35°29' E 139°59'0 0.0
2014-Aug-23 00:33N 35°29' E 139°59'5 4.8
2014-Aug-22 23:33N 35°33' E 140°02'5 4.7
2014-Aug-22 22:33N 35°36' E 140°05'3 2.6
2014-Aug-22 21:33N 35°35' E 140°03'0 0.0
2014-Aug-22 20:33N 35°35' E 140°03'3 3.2
2014-Aug-22 19:33N 35°36' E 140°06'0 0.0
2014-Aug-22 18:33N 35°36' E 140°06'  

Dump ship's entire track history